Saint Peters, Pennsylvania
Current Conditions -  °F | °C
As of 12:54 AM on Thursday 18 Dec 2014 (Local Time) from KPTW Reporting Station
Broken Clouds Broken Clouds  
Wind Chill: 27°   Ceiling: 6000
Heat Index: 35°   Visibility: 10mi
Dew Point: 22°   Wind: 10mph
Humidity: 59%   Direction: 290°WNW
Pressure: 29.98"   Gusts: 20mph
Location:  40.18°N, 75.73°W
Report Text: KPTW 180554Z AUTO 29009G17KT 10SM BKN060 02/M06 A2998 RMK AO2 SLP150 T00171056 10044 20011 55006
Loading
Personal Weather Stations






























Interactive Weather Map New forecast layout! Learn more

10-Day Weather Forecast

Advertisements
Track Severe Weather on mobile